sensor_id;sensor_type;location;lat;lon;timestamp;temperature;humidity
68609;SHT31;55581;46.718;7.690;2023-03-29T00:00:46;7.06;75.13
68609;SHT31;55581;46.718;7.690;2023-03-29T00:03:12;7.01;75.32
68609;SHT31;55581;46.718;7.690;2023-03-29T00:05:38;7.01;75.23
68609;SHT31;55581;46.718;7.690;2023-03-29T00:08:06;7.01;75.61
68609;SHT31;55581;46.718;7.690;2023-03-29T00:10:32;6.99;75.89
68609;SHT31;55581;46.718;7.690;2023-03-29T00:12:58;7.08;75.62
68609;SHT31;55581;46.718;7.690;2023-03-29T00:15:24;7.08;75.38
68609;SHT31;55581;46.718;7.690;2023-03-29T00:17:49;7.15;74.53
68609;SHT31;55581;46.718;7.690;2023-03-29T00:20:15;7.15;75.50
68609;SHT31;55581;46.718;7.690;2023-03-29T00:22:43;7.16;75.65
68609;SHT31;55581;46.718;7.690;2023-03-29T00:25:11;7.15;75.68
68609;SHT31;55581;46.718;7.690;2023-03-29T00:27:38;7.16;75.46
68609;SHT31;55581;46.718;7.690;2023-03-29T00:30:05;7.24;74.59
68609;SHT31;55581;46.718;7.690;2023-03-29T00:32:31;7.20;74.32
68609;SHT31;55581;46.718;7.690;2023-03-29T00:34:58;7.13;75.89
68609;SHT31;55581;46.718;7.690;2023-03-29T00:37:26;7.26;75.24
68609;SHT31;55581;46.718;7.690;2023-03-29T00:39:56;7.24;75.03
68609;SHT31;55581;46.718;7.690;2023-03-29T00:42:23;7.23;75.97
68609;SHT31;55581;46.718;7.690;2023-03-29T00:50:01;7.46;74.68
68609;SHT31;55581;46.718;7.690;2023-03-29T00:52:30;7.56;74.33
68609;SHT31;55581;46.718;7.690;2023-03-29T00:54:58;7.57;72.65
68609;SHT31;55581;46.718;7.690;2023-03-29T00:57:26;7.63;72.37
68609;SHT31;55581;46.718;7.690;2023-03-29T00:59:55;7.70;73.06
68609;SHT31;55581;46.718;7.690;2023-03-29T01:02:22;7.64;73.77
68609;SHT31;55581;46.718;7.690;2023-03-29T01:05:06;7.63;75.37
68609;SHT31;55581;46.718;7.690;2023-03-29T01:07:56;7.57;74.79
68609;SHT31;55581;46.718;7.690;2023-03-29T01:10:33;7.54;76.45
68609;SHT31;55581;46.718;7.690;2023-03-29T01:13:05;7.57;78.28
68609;SHT31;55581;46.718;7.690;2023-03-29T01:15:33;7.57;79.09
68609;SHT31;55581;46.718;7.690;2023-03-29T01:17:59;7.64;76.44
68609;SHT31;55581;46.718;7.690;2023-03-29T01:23:23;7.56;77.64
68609;SHT31;55581;46.718;7.690;2023-03-29T01:28:50;7.34;78.19
68609;SHT31;55581;46.718;7.690;2023-03-29T01:31:23;7.23;77.69
68609;SHT31;55581;46.718;7.690;2023-03-29T01:33:56;7.13;77.24
68609;SHT31;55581;46.718;7.690;2023-03-29T01:36:26;7.08;77.16
68609;SHT31;55581;46.718;7.690;2023-03-29T01:38:58;7.06;78.53
68609;SHT31;55581;46.718;7.690;2023-03-29T01:44:43;6.98;78.72
68609;SHT31;55581;46.718;7.690;2023-03-29T01:47:36;6.99;78.31
68609;SHT31;55581;46.718;7.690;2023-03-29T01:50:28;7.04;78.42
68609;SHT31;55581;46.718;7.690;2023-03-29T01:52:59;7.06;78.04
68609;SHT31;55581;46.718;7.690;2023-03-29T01:55:35;7.11;77.72
68609;SHT31;55581;46.718;7.690;2023-03-29T01:58:04;7.15;77.29
68609;SHT31;55581;46.718;7.690;2023-03-29T02:00:32;7.20;76.94
68609;SHT31;55581;46.718;7.690;2023-03-29T02:03:01;7.26;77.06
68609;SHT31;55581;46.718;7.690;2023-03-29T02:05:28;7.27;78.36
68609;SHT31;55581;46.718;7.690;2023-03-29T02:07:56;7.27;77.29
68609;SHT31;55581;46.718;7.690;2023-03-29T02:10:24;7.30;76.84
68609;SHT31;55581;46.718;7.690;2023-03-29T02:12:51;7.30;77.14
68609;SHT31;55581;46.718;7.690;2023-03-29T02:15:19;7.30;77.12
68609;SHT31;55581;46.718;7.690;2023-03-29T02:17:46;7.19;78.18
68609;SHT31;55581;46.718;7.690;2023-03-29T02:20:16;7.20;78.23
68609;SHT31;55581;46.718;7.690;2023-03-29T02:25:11;7.26;75.40
68609;SHT31;55581;46.718;7.690;2023-03-29T02:27:42;7.22;75.24
68609;SHT31;55581;46.718;7.690;2023-03-29T02:30:09;7.19;75.66
68609;SHT31;55581;46.718;7.690;2023-03-29T02:32:59;7.19;76.34
68609;SHT31;55581;46.718;7.690;2023-03-29T02:35:34;7.12;77.74
68609;SHT31;55581;46.718;7.690;2023-03-29T02:38:05;7.08;78.53
68609;SHT31;55581;46.718;7.690;2023-03-29T02:40:32;7.08;78.90
68609;SHT31;55581;46.718;7.690;2023-03-29T02:43:02;7.11;78.38
68609;SHT31;55581;46.718;7.690;2023-03-29T02:45:30;7.19;79.72
68609;SHT31;55581;46.718;7.690;2023-03-29T02:48:01;7.19;81.03
68609;SHT31;55581;46.718;7.690;2023-03-29T02:50:31;7.13;81.22
68609;SHT31;55581;46.718;7.690;2023-03-29T02:53:08;7.04;80.33
68609;SHT31;55581;46.718;7.690;2023-03-29T02:55:37;6.89;80.81
68609;SHT31;55581;46.718;7.690;2023-03-29T02:58:04;6.81;81.00
68609;SHT31;55581;46.718;7.690;2023-03-29T03:00:35;6.77;80.17
68609;SHT31;55581;46.718;7.690;2023-03-29T03:03:06;6.80;80.04
68609;SHT31;55581;46.718;7.690;2023-03-29T03:05:36;6.80;80.31
68609;SHT31;55581;46.718;7.690;2023-03-29T03:08:02;6.85;80.42
68609;SHT31;55581;46.718;7.690;2023-03-29T03:10:29;6.89;80.28
68609;SHT31;55581;46.718;7.690;2023-03-29T03:12:54;6.88;80.06
68609;SHT31;55581;46.718;7.690;2023-03-29T03:15:20;6.87;80.84
68609;SHT31;55581;46.718;7.690;2023-03-29T03:17:45;6.94;80.21
68609;SHT31;55581;46.718;7.690;2023-03-29T03:20:13;6.98;80.14
68609;SHT31;55581;46.718;7.690;2023-03-29T03:22:44;7.15;79.75
68609;SHT31;55581;46.718;7.690;2023-03-29T03:25:13;7.22;80.32
68609;SHT31;55581;46.718;7.690;2023-03-29T03:27:41;7.15;80.16
68609;SHT31;55581;46.718;7.690;2023-03-29T03:30:07;7.08;79.60
68609;SHT31;55581;46.718;7.690;2023-03-29T03:32:35;7.02;79.50
68609;SHT31;55581;46.718;7.690;2023-03-29T03:35:02;6.95;80.26
68609;SHT31;55581;46.718;7.690;2023-03-29T03:37:30;6.94;80.65
68609;SHT31;55581;46.718;7.690;2023-03-29T03:39:56;6.87;82.13
68609;SHT31;55581;46.718;7.690;2023-03-29T03:42:22;6.85;82.67
68609;SHT31;55581;46.718;7.690;2023-03-29T03:44:50;6.80;82.64
68609;SHT31;55581;46.718;7.690;2023-03-29T03:47:15;6.84;82.47
68609;SHT31;55581;46.718;7.690;2023-03-29T03:49:41;6.89;82.07
68609;SHT31;55581;46.718;7.690;2023-03-29T03:52:07;7.04;81.93
68609;SHT31;55581;46.718;7.690;2023-03-29T03:54:33;7.08;80.76
68609;SHT31;55581;46.718;7.690;2023-03-29T03:56:58;7.13;80.43
68609;SHT31;55581;46.718;7.690;2023-03-29T03:59:24;7.18;80.33
68609;SHT31;55581;46.718;7.690;2023-03-29T04:01:49;7.27;80.01
68609;SHT31;55581;46.718;7.690;2023-03-29T04:04:15;7.34;76.83
68609;SHT31;55581;46.718;7.690;2023-03-29T04:06:40;7.33;79.02
68609;SHT31;55581;46.718;7.690;2023-03-29T04:09:06;7.32;79.58
68609;SHT31;55581;46.718;7.690;2023-03-29T04:11:33;7.43;77.25
68609;SHT31;55581;46.718;7.690;2023-03-29T04:13:59;7.73;75.83
68609;SHT31;55581;46.718;7.690;2023-03-29T04:16:25;8.08;73.13
68609;SHT31;55581;46.718;7.690;2023-03-29T04:18:52;8.28;74.67
68609;SHT31;55581;46.718;7.690;2023-03-29T04:21:20;8.30;74.54
68609;SHT31;55581;46.718;7.690;2023-03-29T04:23:46;8.02;76.79
68609;SHT31;55581;46.718;7.690;2023-03-29T04:26:13;7.74;79.63
68609;SHT31;55581;46.718;7.690;2023-03-29T04:28:41;7.70;79.11
68609;SHT31;55581;46.718;7.690;2023-03-29T04:31:11;7.64;77.70
68609;SHT31;55581;46.718;7.690;2023-03-29T04:33:37;7.61;79.36
68609;SHT31;55581;46.718;7.690;2023-03-29T04:36:04;7.67;78.98
68609;SHT31;55581;46.718;7.690;2023-03-29T04:38:30;7.74;79.26
68609;SHT31;55581;46.718;7.690;2023-03-29T04:40:55;7.73;79.08
68609;SHT31;55581;46.718;7.690;2023-03-29T04:43:21;7.67;79.19
68609;SHT31;55581;46.718;7.690;2023-03-29T04:45:48;7.54;80.14
68609;SHT31;55581;46.718;7.690;2023-03-29T04:48:13;7.59;80.30
68609;SHT31;55581;46.718;7.690;2023-03-29T04:50:39;7.61;79.01
68609;SHT31;55581;46.718;7.690;2023-03-29T04:53:05;7.84;77.81
68609;SHT31;55581;46.718;7.690;2023-03-29T04:55:31;7.79;79.87
68609;SHT31;55581;46.718;7.690;2023-03-29T04:57:56;7.75;78.79
68609;SHT31;55581;46.718;7.690;2023-03-29T05:00:22;7.77;78.82
68609;SHT31;55581;46.718;7.690;2023-03-29T05:02:51;7.74;79.64
68609;SHT31;55581;46.718;7.690;2023-03-29T05:05:18;7.67;80.70
68609;SHT31;55581;46.718;7.690;2023-03-29T05:07:44;7.59;80.38
68609;SHT31;55581;46.718;7.690;2023-03-29T05:10:12;7.49;80.34
68609;SHT31;55581;46.718;7.690;2023-03-29T05:12:37;7.51;79.67
68609;SHT31;55581;46.718;7.690;2023-03-29T05:15:07;7.57;79.11
68609;SHT31;55581;46.718;7.690;2023-03-29T05:17:34;7.92;75.37
68609;SHT31;55581;46.718;7.690;2023-03-29T05:20:02;8.21;76.61
68609;SHT31;55581;46.718;7.690;2023-03-29T05:22:37;8.33;75.56
68609;SHT31;55581;46.718;7.690;2023-03-29T05:25:06;8.22;78.80
68609;SHT31;55581;46.718;7.690;2023-03-29T05:27:32;8.10;79.46
68609;SHT31;55581;46.718;7.690;2023-03-29T05:29:58;7.97;79.23
68609;SHT31;55581;46.718;7.690;2023-03-29T05:32:25;7.95;78.73
68609;SHT31;55581;46.718;7.690;2023-03-29T05:34:51;7.98;79.67
68609;SHT31;55581;46.718;7.690;2023-03-29T05:37:17;7.92;79.24
68609;SHT31;55581;46.718;7.690;2023-03-29T05:39:42;7.82;79.29
68609;SHT31;55581;46.718;7.690;2023-03-29T05:42:10;7.70;79.77
68609;SHT31;55581;46.718;7.690;2023-03-29T05:44:38;7.54;80.65
68609;SHT31;55581;46.718;7.690;2023-03-29T05:47:05;7.34;81.72
68609;SHT31;55581;46.718;7.690;2023-03-29T05:49:31;7.24;82.61
68609;SHT31;55581;46.718;7.690;2023-03-29T05:51:57;7.24;82.62
68609;SHT31;55581;46.718;7.690;2023-03-29T05:54:23;7.29;81.71
68609;SHT31;55581;46.718;7.690;2023-03-29T05:56:51;7.36;82.16
68609;SHT31;55581;46.718;7.690;2023-03-29T05:59:16;7.37;82.56
68609;SHT31;55581;46.718;7.690;2023-03-29T06:01:43;7.32;82.27
68609;SHT31;55581;46.718;7.690;2023-03-29T06:04:11;7.34;82.17
68609;SHT31;55581;46.718;7.690;2023-03-29T06:06:37;7.34;82.89
68609;SHT31;55581;46.718;7.690;2023-03-29T06:09:06;7.42;82.98
68609;SHT31;55581;46.718;7.690;2023-03-29T06:11:32;7.53;82.37
68609;SHT31;55581;46.718;7.690;2023-03-29T06:13:59;7.64;82.21
68609;SHT31;55581;46.718;7.690;2023-03-29T06:16:27;7.64;81.68
68609;SHT31;55581;46.718;7.690;2023-03-29T06:18:53;7.56;84.13
68609;SHT31;55581;46.718;7.690;2023-03-29T06:21:18;7.59;83.36
68609;SHT31;55581;46.718;7.690;2023-03-29T06:23:44;7.68;81.78
68609;SHT31;55581;46.718;7.690;2023-03-29T06:26:10;7.64;83.26
68609;SHT31;55581;46.718;7.690;2023-03-29T06:28:36;7.47;84.17
68609;SHT31;55581;46.718;7.690;2023-03-29T06:31:03;7.59;83.41
68609;SHT31;55581;46.718;7.690;2023-03-29T06:33:31;7.43;85.90
68609;SHT31;55581;46.718;7.690;2023-03-29T06:36:00;7.49;85.84
68609;SHT31;55581;46.718;7.690;2023-03-29T06:38:25;7.49;86.00
68609;SHT31;55581;46.718;7.690;2023-03-29T06:41:02;7.47;85.48
68609;SHT31;55581;46.718;7.690;2023-03-29T06:43:28;7.33;86.05
68609;SHT31;55581;46.718;7.690;2023-03-29T06:45:56;7.19;86.91
68609;SHT31;55581;46.718;7.690;2023-03-29T06:48:21;7.29;86.25
68609;SHT31;55581;46.718;7.690;2023-03-29T06:50:47;7.36;86.63
68609;SHT31;55581;46.718;7.690;2023-03-29T06:53:13;7.39;86.08
68609;SHT31;55581;46.718;7.690;2023-03-29T06:55:40;7.40;86.06
68609;SHT31;55581;46.718;7.690;2023-03-29T06:58:11;7.42;85.53
68609;SHT31;55581;46.718;7.690;2023-03-29T07:00:37;7.47;85.92
68609;SHT31;55581;46.718;7.690;2023-03-29T07:03:06;7.49;86.39
68609;SHT31;55581;46.718;7.690;2023-03-29T07:05:32;7.60;85.72
68609;SHT31;55581;46.718;7.690;2023-03-29T07:08:00;7.68;85.39
68609;SHT31;55581;46.718;7.690;2023-03-29T07:10:43;7.75;85.00
68609;SHT31;55581;46.718;7.690;2023-03-29T07:13:10;7.68;85.49
68609;SHT31;55581;46.718;7.690;2023-03-29T07:15:40;7.67;84.69
68609;SHT31;55581;46.718;7.690;2023-03-29T07:18:07;7.60;84.35
68609;SHT31;55581;46.718;7.690;2023-03-29T07:20:33;7.63;84.29
68609;SHT31;55581;46.718;7.690;2023-03-29T07:22:58;7.60;85.05
68609;SHT31;55581;46.718;7.690;2023-03-29T07:25:25;7.68;85.57
68609;SHT31;55581;46.718;7.690;2023-03-29T07:27:52;7.67;86.00
68609;SHT31;55581;46.718;7.690;2023-03-29T07:30:25;7.75;85.24
68609;SHT31;55581;46.718;7.690;2023-03-29T07:32:57;7.81;85.66
68609;SHT31;55581;46.718;7.690;2023-03-29T07:35:24;7.82;85.27
68609;SHT31;55581;46.718;7.690;2023-03-29T07:37:49;7.91;85.21
68609;SHT31;55581;46.718;7.690;2023-03-29T07:40:16;7.92;84.36
68609;SHT31;55581;46.718;7.690;2023-03-29T07:42:44;7.87;83.83
68609;SHT31;55581;46.718;7.690;2023-03-29T07:45:11;7.84;83.72
68609;SHT31;55581;46.718;7.690;2023-03-29T07:47:39;7.81;83.38
68609;SHT31;55581;46.718;7.690;2023-03-29T07:50:05;7.74;83.49
68609;SHT31;55581;46.718;7.690;2023-03-29T07:52:32;7.81;83.51
68609;SHT31;55581;46.718;7.690;2023-03-29T07:54:57;7.81;83.43
68609;SHT31;55581;46.718;7.690;2023-03-29T07:57:24;7.79;84.18
68609;SHT31;55581;46.718;7.690;2023-03-29T07:59:53;7.85;84.38
68609;SHT31;55581;46.718;7.690;2023-03-29T08:02:19;7.94;84.39
68609;SHT31;55581;46.718;7.690;2023-03-29T08:04:45;8.02;83.78
68609;SHT31;55581;46.718;7.690;2023-03-29T08:07:13;8.15;83.06
68609;SHT31;55581;46.718;7.690;2023-03-29T08:09:39;8.21;83.74
68609;SHT31;55581;46.718;7.690;2023-03-29T08:12:05;8.33;83.45
68609;SHT31;55581;46.718;7.690;2023-03-29T08:14:31;8.47;83.08
68609;SHT31;55581;46.718;7.690;2023-03-29T08:16:58;8.56;82.40
68609;SHT31;55581;46.718;7.690;2023-03-29T08:19:24;8.56;82.82
68609;SHT31;55581;46.718;7.690;2023-03-29T08:21:49;8.61;81.84
68609;SHT31;55581;46.718;7.690;2023-03-29T08:24:16;8.60;81.71
68609;SHT31;55581;46.718;7.690;2023-03-29T08:26:41;8.57;82.48
68609;SHT31;55581;46.718;7.690;2023-03-29T08:29:10;8.64;83.43
68609;SHT31;55581;46.718;7.690;2023-03-29T08:31:36;8.60;82.47
68609;SHT31;55581;46.718;7.690;2023-03-29T08:34:02;8.64;82.96
68609;SHT31;55581;46.718;7.690;2023-03-29T08:36:27;8.75;82.49
68609;SHT31;55581;46.718;7.690;2023-03-29T08:38:53;8.81;82.72
68609;SHT31;55581;46.718;7.690;2023-03-29T08:43:58;9.02;82.91
68609;SHT31;55581;46.718;7.690;2023-03-29T08:46:36;9.07;82.61
68609;SHT31;55581;46.718;7.690;2023-03-29T08:49:06;9.27;80.86
68609;SHT31;55581;46.718;7.690;2023-03-29T08:51:39;9.50;79.68
68609;SHT31;55581;46.718;7.690;2023-03-29T08:54:20;9.63;79.53
68609;SHT31;55581;46.718;7.690;2023-03-29T08:56:53;9.57;78.84
68609;SHT31;55581;46.718;7.690;2023-03-29T08:59:25;9.57;78.99
68609;SHT31;55581;46.718;7.690;2023-03-29T09:01:54;9.36;80.61
68609;SHT31;55581;46.718;7.690;2023-03-29T09:04:26;9.32;80.50
68609;SHT31;55581;46.718;7.690;2023-03-29T09:06:51;9.40;80.58
68609;SHT31;55581;46.718;7.690;2023-03-29T09:09:20;9.32;81.11
68609;SHT31;55581;46.718;7.690;2023-03-29T09:20:49;9.42;78.89
68609;SHT31;55581;46.718;7.690;2023-03-29T09:31:25;9.53;77.81
68609;SHT31;55581;46.718;7.690;2023-03-29T09:33:58;9.50;77.79
68609;SHT31;55581;46.718;7.690;2023-03-29T09:36:48;9.58;77.90
68609;SHT31;55581;46.718;7.690;2023-03-29T09:39:15;9.57;77.81
68609;SHT31;55581;46.718;7.690;2023-03-29T09:44:30;9.82;78.06
68609;SHT31;55581;46.718;7.690;2023-03-29T09:47:24;10.11;77.19
68609;SHT31;55581;46.718;7.690;2023-03-29T09:49:55;10.26;75.15
68609;SHT31;55581;46.718;7.690;2023-03-29T09:52:22;10.30;75.13
68609;SHT31;55581;46.718;7.690;2023-03-29T09:54:48;10.30;76.54
68609;SHT31;55581;46.718;7.690;2023-03-29T09:57:17;10.26;77.28
68609;SHT31;55581;46.718;7.690;2023-03-29T09:59:48;10.43;75.34
68609;SHT31;55581;46.718;7.690;2023-03-29T10:02:17;10.49;75.30
68609;SHT31;55581;46.718;7.690;2023-03-29T10:04:52;10.46;76.11
68609;SHT31;55581;46.718;7.690;2023-03-29T10:07:20;10.61;74.99
68609;SHT31;55581;46.718;7.690;2023-03-29T10:09:46;10.53;75.03
68609;SHT31;55581;46.718;7.690;2023-03-29T10:12:12;10.50;74.91
68609;SHT31;55581;46.718;7.690;2023-03-29T10:14:41;10.47;73.97
68609;SHT31;55581;46.718;7.690;2023-03-29T10:17:24;10.42;73.91
68609;SHT31;55581;46.718;7.690;2023-03-29T10:19:57;10.22;75.32
68609;SHT31;55581;46.718;7.690;2023-03-29T10:22:26;10.12;76.02
68609;SHT31;55581;46.718;7.690;2023-03-29T10:24:53;10.09;76.07
68609;SHT31;55581;46.718;7.690;2023-03-29T10:27:25;10.16;76.66
68609;SHT31;55581;46.718;7.690;2023-03-29T10:29:51;10.50;75.37
68609;SHT31;55581;46.718;7.690;2023-03-29T10:34:47;10.83;73.40
68609;SHT31;55581;46.718;7.690;2023-03-29T10:37:15;11.15;71.33
68609;SHT31;55581;46.718;7.690;2023-03-29T10:39:44;11.60;70.31
68609;SHT31;55581;46.718;7.690;2023-03-29T10:42:15;12.29;64.57
68609;SHT31;55581;46.718;7.690;2023-03-29T10:44:42;12.97;61.72
68609;SHT31;55581;46.718;7.690;2023-03-29T10:47:18;13.01;66.18
68609;SHT31;55581;46.718;7.690;2023-03-29T10:49:56;12.87;66.04
68609;SHT31;55581;46.718;7.690;2023-03-29T10:52:23;12.55;66.60
68609;SHT31;55581;46.718;7.690;2023-03-29T10:54:50;12.33;68.30
68609;SHT31;55581;46.718;7.690;2023-03-29T10:57:41;12.12;69.33
68609;SHT31;55581;46.718;7.690;2023-03-29T11:00:47;12.15;69.86
68609;SHT31;55581;46.718;7.690;2023-03-29T11:09:37;12.28;67.14
68609;SHT31;55581;46.718;7.690;2023-03-29T11:25:17;12.56;67.50
68609;SHT31;55581;46.718;7.690;2023-03-29T11:30:57;12.79;66.71
68609;SHT31;55581;46.718;7.690;2023-03-29T11:36:30;12.52;67.96
68609;SHT31;55581;46.718;7.690;2023-03-29T11:41:31;12.22;68.94
68609;SHT31;55581;46.718;7.690;2023-03-29T11:44:03;12.28;68.43
68609;SHT31;55581;46.718;7.690;2023-03-29T11:46:35;12.22;69.79
68609;SHT31;55581;46.718;7.690;2023-03-29T11:51:35;12.42;67.41
68609;SHT31;55581;46.718;7.690;2023-03-29T11:54:26;12.40;69.12
68609;SHT31;55581;46.718;7.690;2023-03-29T11:56:59;12.40;69.27
68609;SHT31;55581;46.718;7.690;2023-03-29T11:59:51;12.04;71.61
68609;SHT31;55581;46.718;7.690;2023-03-29T12:02:32;12.01;70.98
68609;SHT31;55581;46.718;7.690;2023-03-29T12:05:05;12.01;70.86
68609;SHT31;55581;46.718;7.690;2023-03-29T12:08:02;12.17;70.68
68609;SHT31;55581;46.718;7.690;2023-03-29T12:10:38;12.08;71.65
68609;SHT31;55581;46.718;7.690;2023-03-29T12:13:15;12.17;69.86
68609;SHT31;55581;46.718;7.690;2023-03-29T12:15:48;12.14;70.60
68609;SHT31;55581;46.718;7.690;2023-03-29T12:18:21;12.17;71.84
68609;SHT31;55581;46.718;7.690;2023-03-29T12:20:58;12.21;69.74
68609;SHT31;55581;46.718;7.690;2023-03-29T12:23:28;12.06;71.35
68609;SHT31;55581;46.718;7.690;2023-03-29T12:28:43;12.10;70.11
68609;SHT31;55581;46.718;7.690;2023-03-29T12:39:31;12.42;70.02
68609;SHT31;55581;46.718;7.690;2023-03-29T12:42:06;12.43;70.20
68609;SHT31;55581;46.718;7.690;2023-03-29T12:44:38;12.21;71.52
68609;SHT31;55581;46.718;7.690;2023-03-29T12:47:14;12.22;70.29
68609;SHT31;55581;46.718;7.690;2023-03-29T12:49:41;12.18;71.07
68609;SHT31;55581;46.718;7.690;2023-03-29T12:52:22;12.22;69.55
68609;SHT31;55581;46.718;7.690;2023-03-29T12:55:27;12.24;69.62
68609;SHT31;55581;46.718;7.690;2023-03-29T12:58:02;12.46;69.39
68609;SHT31;55581;46.718;7.690;2023-03-29T13:00:43;12.50;69.39
68609;SHT31;55581;46.718;7.690;2023-03-29T13:06:10;12.60;69.17
68609;SHT31;55581;46.718;7.690;2023-03-29T13:11:04;13.07;67.96
68609;SHT31;55581;46.718;7.690;2023-03-29T13:13:33;13.58;60.57
68609;SHT31;55581;46.718;7.690;2023-03-29T13:16:31;13.22;66.86
68609;SHT31;55581;46.718;7.690;2023-03-29T13:19:13;13.08;66.40
68609;SHT31;55581;46.718;7.690;2023-03-29T13:21:59;13.03;66.27
68609;SHT31;55581;46.718;7.690;2023-03-29T13:24:39;13.12;64.15
68609;SHT31;55581;46.718;7.690;2023-03-29T13:27:27;13.77;56.78
68609;SHT31;55581;46.718;7.690;2023-03-29T13:35:46;14.63;53.47
68609;SHT31;55581;46.718;7.690;2023-03-29T13:43:29;15.44;55.04
68609;SHT31;55581;46.718;7.690;2023-03-29T13:50:58;15.91;47.55
68609;SHT31;55581;46.718;7.690;2023-03-29T13:54:28;15.96;47.44
68609;SHT31;55581;46.718;7.690;2023-03-29T13:56:55;16.07;47.35
68609;SHT31;55581;46.718;7.690;2023-03-29T13:59:26;16.11;46.98
68609;SHT31;55581;46.718;7.690;2023-03-29T14:01:58;16.16;46.18
68609;SHT31;55581;46.718;7.690;2023-03-29T14:04:42;16.14;47.76
68609;SHT31;55581;46.718;7.690;2023-03-29T14:07:12;15.99;47.87
68609;SHT31;55581;46.718;7.690;2023-03-29T14:09:42;15.96;49.09
68609;SHT31;55581;46.718;7.690;2023-03-29T14:12:11;15.90;49.64
68609;SHT31;55581;46.718;7.690;2023-03-29T14:14:39;15.89;49.82
68609;SHT31;55581;46.718;7.690;2023-03-29T14:17:06;15.96;50.97
68609;SHT31;55581;46.718;7.690;2023-03-29T14:19:34;15.97;48.79
68609;SHT31;55581;46.718;7.690;2023-03-29T14:22:02;15.97;48.13
68609;SHT31;55581;46.718;7.690;2023-03-29T14:24:37;16.04;48.86
68609;SHT31;55581;46.718;7.690;2023-03-29T14:27:05;16.07;48.37
68609;SHT31;55581;46.718;7.690;2023-03-29T14:29:34;16.13;48.75
68609;SHT31;55581;46.718;7.690;2023-03-29T14:32:13;16.14;48.74
68609;SHT31;55581;46.718;7.690;2023-03-29T14:34:40;16.17;48.78
68609;SHT31;55581;46.718;7.690;2023-03-29T14:37:08;16.22;49.16
68609;SHT31;55581;46.718;7.690;2023-03-29T14:39:34;16.25;49.19
68609;SHT31;55581;46.718;7.690;2023-03-29T14:42:03;16.32;47.98
68609;SHT31;55581;46.718;7.690;2023-03-29T14:44:34;16.38;47.88
68609;SHT31;55581;46.718;7.690;2023-03-29T14:47:00;16.38;48.71
68609;SHT31;55581;46.718;7.690;2023-03-29T14:49:27;16.40;48.37
68609;SHT31;55581;46.718;7.690;2023-03-29T14:51:53;16.41;48.66
68609;SHT31;55581;46.718;7.690;2023-03-29T14:54:28;16.38;48.79
68609;SHT31;55581;46.718;7.690;2023-03-29T14:56:54;16.35;49.18
68609;SHT31;55581;46.718;7.690;2023-03-29T14:59:40;16.35;49.17
68609;SHT31;55581;46.718;7.690;2023-03-29T15:02:27;16.35;49.92
68609;SHT31;55581;46.718;7.690;2023-03-29T15:04:59;16.31;49.34
68609;SHT31;55581;46.718;7.690;2023-03-29T15:07:28;16.40;48.41
68609;SHT31;55581;46.718;7.690;2023-03-29T15:09:57;16.31;48.06
68609;SHT31;55581;46.718;7.690;2023-03-29T15:12:23;16.28;52.16
68609;SHT31;55581;46.718;7.690;2023-03-29T15:14:50;16.00;56.31
68609;SHT31;55581;46.718;7.690;2023-03-29T15:17:28;15.54;56.85
68609;SHT31;55581;46.718;7.690;2023-03-29T15:20:03;15.42;55.77
68609;SHT31;55581;46.718;7.690;2023-03-29T15:22:36;15.46;54.96
68609;SHT31;55581;46.718;7.690;2023-03-29T15:25:09;15.62;54.11
68609;SHT31;55581;46.718;7.690;2023-03-29T15:27:40;15.82;53.16
68609;SHT31;55581;46.718;7.690;2023-03-29T15:30:12;15.90;54.64
68609;SHT31;55581;46.718;7.690;2023-03-29T15:32:38;15.46;57.94
68609;SHT31;55581;46.718;7.690;2023-03-29T15:35:05;15.52;56.70
68609;SHT31;55581;46.718;7.690;2023-03-29T15:37:34;15.51;55.24
68609;SHT31;55581;46.718;7.690;2023-03-29T15:40:05;15.52;55.70
68609;SHT31;55581;46.718;7.690;2023-03-29T15:42:34;14.72;62.66
68609;SHT31;55581;46.718;7.690;2023-03-29T15:45:02;14.42;63.12
68609;SHT31;55581;46.718;7.690;2023-03-29T15:47:29;14.18;63.51
68609;SHT31;55581;46.718;7.690;2023-03-29T15:49:54;13.91;65.08
68609;SHT31;55581;46.718;7.690;2023-03-29T15:52:20;13.52;66.56
68609;SHT31;55581;46.718;7.690;2023-03-29T15:54:46;13.36;67.12
68609;SHT31;55581;46.718;7.690;2023-03-29T15:57:13;13.15;67.20
68609;SHT31;55581;46.718;7.690;2023-03-29T15:59:41;12.95;68.12
68609;SHT31;55581;46.718;7.690;2023-03-29T16:02:16;12.77;68.59
68609;SHT31;55581;46.718;7.690;2023-03-29T16:04:45;12.63;69.13
68609;SHT31;55581;46.718;7.690;2023-03-29T16:07:13;12.61;69.31
68609;SHT31;55581;46.718;7.690;2023-03-29T16:09:39;12.59;69.68
68609;SHT31;55581;46.718;7.690;2023-03-29T16:12:04;12.53;70.13
68609;SHT31;55581;46.718;7.690;2023-03-29T16:14:30;12.56;70.39
68609;SHT31;55581;46.718;7.690;2023-03-29T16:16:58;12.55;70.55
68609;SHT31;55581;46.718;7.690;2023-03-29T16:19:25;12.46;71.16
68609;SHT31;55581;46.718;7.690;2023-03-29T16:21:52;12.26;72.06
68609;SHT31;55581;46.718;7.690;2023-03-29T16:24:29;12.06;73.54
68609;SHT31;55581;46.718;7.690;2023-03-29T16:27:00;12.04;72.84
68609;SHT31;55581;46.718;7.690;2023-03-29T16:29:28;11.97;73.30
68609;SHT31;55581;46.718;7.690;2023-03-29T16:31:54;11.95;73.66
68609;SHT31;55581;46.718;7.690;2023-03-29T16:34:20;12.01;72.94
68609;SHT31;55581;46.718;7.690;2023-03-29T16:36:47;11.98;74.20
68609;SHT31;55581;46.718;7.690;2023-03-29T16:39:13;11.99;73.71
68609;SHT31;55581;46.718;7.690;2023-03-29T16:41:39;11.97;74.01
68609;SHT31;55581;46.718;7.690;2023-03-29T16:44:05;11.83;75.83
68609;SHT31;55581;46.718;7.690;2023-03-29T16:46:31;11.76;76.98
68609;SHT31;55581;46.718;7.690;2023-03-29T16:48:57;11.77;75.68
68609;SHT31;55581;46.718;7.690;2023-03-29T16:51:25;11.67;76.36
68609;SHT31;55581;46.718;7.690;2023-03-29T16:53:51;11.55;77.55
68609;SHT31;55581;46.718;7.690;2023-03-29T16:56:17;11.50;78.46
68609;SHT31;55581;46.718;7.690;2023-03-29T16:58:43;11.57;76.11
68609;SHT31;55581;46.718;7.690;2023-03-29T17:01:10;11.59;75.78
68609;SHT31;55581;46.718;7.690;2023-03-29T17:03:37;11.67;75.28
68609;SHT31;55581;46.718;7.690;2023-03-29T17:06:04;11.94;72.48
68609;SHT31;55581;46.718;7.690;2023-03-29T17:08:29;12.14;71.82
68609;SHT31;55581;46.718;7.690;2023-03-29T17:10:55;12.31;71.18
68609;SHT31;55581;46.718;7.690;2023-03-29T17:13:21;12.28;73.95
68609;SHT31;55581;46.718;7.690;2023-03-29T17:15:52;12.17;74.16
68609;SHT31;55581;46.718;7.690;2023-03-29T17:18:21;12.15;74.16
68609;SHT31;55581;46.718;7.690;2023-03-29T17:20:50;11.98;75.30
68609;SHT31;55581;46.718;7.690;2023-03-29T17:23:16;11.97;75.35
68609;SHT31;55581;46.718;7.690;2023-03-29T17:25:44;11.83;76.19
68609;SHT31;55581;46.718;7.690;2023-03-29T17:28:12;11.71;76.87
68609;SHT31;55581;46.718;7.690;2023-03-29T17:30:38;11.63;77.38
68609;SHT31;55581;46.718;7.690;2023-03-29T17:33:04;11.55;77.45
68609;SHT31;55581;46.718;7.690;2023-03-29T17:35:30;11.49;77.86
68609;SHT31;55581;46.718;7.690;2023-03-29T17:37:55;11.53;77.74
68609;SHT31;55581;46.718;7.690;2023-03-29T17:40:22;11.52;77.70